createdAt,value
2018-02-25T00:00:43.344Z,1008.87
2018-02-25T00:02:36.665Z,1008.93
2018-02-25T00:03:36.683Z,1008.95
2018-02-25T00:05:29.442Z,1008.90
2018-02-25T00:06:29.415Z,1008.90
2018-02-25T00:08:22.249Z,1008.93
2018-02-25T00:09:22.203Z,1009.02
2018-02-25T00:11:15.026Z,1008.98
2018-02-25T00:12:14.997Z,1008.99
2018-02-25T00:14:07.832Z,1009.06
2018-02-25T00:15:07.783Z,1009.04
2018-02-25T00:17:01.093Z,1009.04
2018-02-25T00:18:01.063Z,1009.08
2018-02-25T00:19:53.898Z,1009.19
2018-02-25T00:20:53.853Z,1009.12
2018-02-25T00:22:46.669Z,1009.09
2018-02-25T00:23:46.640Z,1009.08
2018-02-25T00:25:39.960Z,1009.15
2018-02-25T00:26:39.919Z,1009.08
2018-02-25T00:28:32.732Z,1009.15
2018-02-25T00:29:32.703Z,1009.22
2018-02-25T00:31:26.025Z,1009.23
2018-02-25T00:32:25.983Z,1009.34
2018-02-25T00:34:18.802Z,1009.30
2018-02-25T00:35:18.772Z,1009.35
2018-02-25T00:37:11.604Z,1009.36
2018-02-25T00:38:11.560Z,1009.30
2018-02-25T00:40:04.376Z,1009.31
2018-02-25T00:41:04.344Z,1009.30
2018-02-25T00:42:57.179Z,1009.28
2018-02-25T00:43:57.132Z,1009.31
2018-02-25T00:45:49.947Z,1009.30
2018-02-25T00:46:49.917Z,1009.42
2018-02-25T00:48:42.746Z,1009.37
2018-02-25T00:49:42.704Z,1009.38
2018-02-25T00:51:35.516Z,1009.31
2018-02-25T00:52:35.488Z,1009.40
2018-02-25T00:54:28.820Z,1009.35
2018-02-25T00:55:28.778Z,1009.33
2018-02-25T00:57:22.084Z,1009.36
2018-02-25T00:58:22.057Z,1009.31
2018-02-25T01:00:14.886Z,1009.33
2018-02-25T01:01:14.840Z,1009.36
2018-02-25T01:03:07.654Z,1009.34
2018-02-25T01:04:07.625Z,1009.30
2018-02-25T01:06:00.462Z,1009.44
2018-02-25T01:07:00.414Z,1009.42
2018-02-25T01:08:53.226Z,1009.33
2018-02-25T01:09:53.195Z,1009.34
2018-02-25T01:11:46.032Z,1009.38
2018-02-25T01:12:45.984Z,1009.36
2018-02-25T01:14:38.812Z,1009.32
2018-02-25T01:15:38.782Z,1009.37
2018-02-25T01:17:32.103Z,1009.39
2018-02-25T01:18:32.060Z,1009.33
2018-02-25T01:20:25.368Z,1009.44
2018-02-25T01:21:25.339Z,1009.42
2018-02-25T01:23:18.176Z,1009.39
2018-02-25T01:24:18.136Z,1009.40
2018-02-25T01:26:11.447Z,1009.42
2018-02-25T01:27:11.416Z,1009.37
2018-02-25T01:29:04.737Z,1009.42
2018-02-25T01:30:04.695Z,1009.44
2018-02-25T01:31:57.520Z,1009.28
2018-02-25T01:32:57.484Z,1009.42
2018-02-25T01:34:50.313Z,1009.44
2018-02-25T01:35:50.270Z,1009.44
2018-02-25T01:37:43.188Z,1009.43
2018-02-25T01:38:43.091Z,1009.41
2018-02-25T01:40:35.885Z,1009.46
2018-02-25T01:41:35.841Z,1009.42
2018-02-25T01:43:29.148Z,1009.40
2018-02-25T01:44:29.120Z,1009.41
2018-02-25T01:46:21.960Z,1009.39
2018-02-25T01:47:21.909Z,1009.38
2018-02-25T01:49:15.227Z,1009.35
2018-02-25T01:50:15.197Z,1009.38
2018-02-25T01:52:08.028Z,1009.42
2018-02-25T01:53:07.982Z,1009.37
2018-02-25T01:55:00.798Z,1009.31
2018-02-25T01:56:00.766Z,1009.34
2018-02-25T01:57:53.596Z,1009.34
2018-02-25T01:58:53.554Z,1009.40
2018-02-25T02:00:46.864Z,1009.36
2018-02-25T02:01:46.834Z,1009.38
2018-02-25T02:03:40.156Z,1009.36
2018-02-25T02:04:40.115Z,1009.32
2018-02-25T02:06:32.931Z,1009.25
2018-02-25T02:07:32.901Z,1009.33
2018-02-25T02:09:25.832Z,1009.33
2018-02-25T02:10:25.690Z,1009.39
2018-02-25T02:12:18.508Z,1009.45
2018-02-25T02:13:18.504Z,1009.40
2018-02-25T02:15:11.316Z,1009.41
2018-02-25T02:16:11.261Z,1009.47
2018-02-25T02:18:04.568Z,1009.48
2018-02-25T02:19:04.540Z,1009.52
2018-02-25T02:20:57.378Z,1009.50
2018-02-25T02:21:57.328Z,1009.51
2018-02-25T02:23:50.146Z,1009.41
2018-02-25T02:24:50.115Z,1009.45
2018-02-25T02:26:43.437Z,1009.56
2018-02-25T02:27:43.393Z,1009.65
2018-02-25T02:29:36.205Z,1009.63
2018-02-25T02:30:36.179Z,1009.61
2018-02-25T02:32:29.008Z,1009.70
2018-02-25T02:33:28.962Z,1009.69
2018-02-25T02:35:22.269Z,1009.65
2018-02-25T02:36:22.241Z,1009.63
2018-02-25T02:38:15.075Z,1009.69
2018-02-25T02:39:15.025Z,1009.68
2018-02-25T02:41:07.839Z,1009.57
2018-02-25T02:42:07.817Z,1009.54
2018-02-25T02:44:00.636Z,1009.60
2018-02-25T02:45:00.642Z,1009.60
2018-02-25T02:46:53.897Z,1009.59
2018-02-25T02:47:53.870Z,1009.52
2018-02-25T02:49:47.194Z,1009.66
2018-02-25T02:50:47.156Z,1009.63
2018-02-25T02:52:39.993Z,1009.64
2018-02-25T02:53:39.933Z,1009.70
2018-02-25T02:55:33.261Z,1009.69
2018-02-25T02:56:33.213Z,1009.68
2018-02-25T02:58:26.522Z,1009.73
2018-02-25T02:59:26.492Z,1009.74
2018-02-25T03:01:19.323Z,1009.74
2018-02-25T03:02:19.278Z,1009.71
2018-02-25T03:04:12.604Z,1009.74
2018-02-25T03:05:12.560Z,1009.68
2018-02-25T03:07:05.889Z,1009.75
2018-02-25T03:08:05.843Z,1009.73
2018-02-25T03:09:58.659Z,1009.78
2018-02-25T03:10:58.630Z,1009.82
2018-02-25T03:12:51.953Z,1009.83
2018-02-25T03:13:51.910Z,1009.81
2018-02-25T03:15:44.721Z,1009.75
2018-02-25T03:16:44.692Z,1009.74
2018-02-25T03:18:38.022Z,1009.76
2018-02-25T03:19:37.968Z,1009.68
2018-02-25T03:21:31.276Z,1009.73
2018-02-25T03:22:31.249Z,1009.75
2018-02-25T03:24:24.588Z,1009.71
2018-02-25T03:25:24.579Z,1009.78
2018-02-25T03:27:17.349Z,1009.78
2018-02-25T03:28:17.319Z,1009.81
2018-02-25T03:30:10.644Z,1009.75
2018-02-25T03:31:10.599Z,1009.78
2018-02-25T03:33:03.914Z,1009.80
2018-02-25T03:34:03.887Z,1009.79
2018-02-25T03:35:57.210Z,1009.74
2018-02-25T03:36:57.166Z,1009.64
2018-02-25T03:38:49.975Z,1009.80
2018-02-25T03:39:49.947Z,1009.82
2018-02-25T03:41:42.778Z,1009.83
2018-02-25T03:42:42.732Z,1009.82
2018-02-25T03:44:36.057Z,1009.86
2018-02-25T03:45:36.020Z,1009.85
2018-02-25T03:47:29.347Z,1009.83
2018-02-25T03:48:29.296Z,1009.86
2018-02-25T03:50:22.616Z,1009.82
2018-02-25T03:51:22.587Z,1009.82
2018-02-25T03:53:15.413Z,1009.91
2018-02-25T03:54:15.370Z,1009.85
2018-02-25T03:56:08.674Z,1009.81
2018-02-25T03:57:08.647Z,1009.81
2018-02-25T03:59:01.978Z,1009.85
2018-02-25T04:00:01.932Z,1009.81
2018-02-25T04:01:54.762Z,1009.80
2018-02-25T04:02:54.731Z,1009.79
2018-02-25T04:04:47.556Z,1009.84
2018-02-25T04:05:47.511Z,1009.80
2018-02-25T04:07:40.329Z,1009.82
2018-02-25T04:08:40.296Z,1009.83
2018-02-25T04:10:33.134Z,1009.83
2018-02-25T04:11:33.089Z,1009.78
2018-02-25T04:13:25.905Z,1009.80
2018-02-25T04:14:25.875Z,1009.76
2018-02-25T04:16:18.704Z,1009.78
2018-02-25T04:17:18.658Z,1009.85
2018-02-25T04:19:11.470Z,1009.86
2018-02-25T04:20:11.506Z,1009.84
2018-02-25T04:22:04.774Z,1009.89
2018-02-25T04:23:04.719Z,1009.83
2018-02-25T04:24:58.026Z,1009.79
2018-02-25T04:25:57.996Z,1009.78
2018-02-25T04:27:51.317Z,1009.78
2018-02-25T04:28:51.272Z,1009.84
2018-02-25T04:30:45.086Z,1009.83
2018-02-25T04:31:45.060Z,1009.83
2018-02-25T04:33:37.884Z,1009.84
2018-02-25T04:34:37.841Z,1009.88
2018-02-25T04:36:30.675Z,1009.95
2018-02-25T04:37:30.623Z,1009.91
2018-02-25T04:39:23.955Z,1009.99
2018-02-25T04:40:23.909Z,1010.04
2018-02-25T04:42:17.216Z,1010.07
2018-02-25T04:43:17.189Z,1010.11
2018-02-25T04:45:10.016Z,1010.06
2018-02-25T04:46:09.972Z,1010.09
2018-02-25T04:48:02.786Z,1010.09
2018-02-25T04:49:02.751Z,1010.05
2018-02-25T04:50:56.072Z,1010.06
2018-02-25T04:51:56.029Z,1009.95
2018-02-25T04:53:48.838Z,1010.00
2018-02-25T04:54:48.807Z,1010.04
2018-02-25T04:56:41.638Z,1010.08
2018-02-25T04:57:41.595Z,1010.06
2018-02-25T04:59:34.901Z,1010.14
2018-02-25T05:00:34.872Z,1010.17
2018-02-25T05:02:27.707Z,1010.17
2018-02-25T05:03:27.661Z,1010.15
2018-02-25T05:05:20.966Z,1010.19
2018-02-25T05:06:20.940Z,1010.21
2018-02-25T05:08:13.768Z,1010.20
2018-02-25T05:09:13.720Z,1010.16
2018-02-25T05:11:07.026Z,1010.25
2018-02-25T05:12:06.997Z,1010.28
2018-02-25T05:13:59.837Z,1010.23
2018-02-25T05:14:59.783Z,1010.21
2018-02-25T05:16:53.092Z,1010.20
2018-02-25T05:17:53.064Z,1010.23
2018-02-25T05:19:46.386Z,1010.21
2018-02-25T05:20:46.340Z,1010.21
2018-02-25T05:22:39.152Z,1010.23
2018-02-25T05:23:39.123Z,1010.24
2018-02-25T05:25:31.954Z,1010.24
2018-02-25T05:26:31.910Z,1010.26
2018-02-25T05:28:24.724Z,1010.20
2018-02-25T05:29:24.692Z,1010.24
2018-02-25T05:31:18.019Z,1010.22
2018-02-25T05:32:17.973Z,1010.27
2018-02-25T05:34:11.277Z,1010.16
2018-02-25T05:35:11.248Z,1010.32
2018-02-25T05:37:04.079Z,1010.30
2018-02-25T05:38:04.034Z,1010.23
2018-02-25T05:39:57.338Z,1010.29
2018-02-25T05:40:57.310Z,1010.25
2018-02-25T05:42:50.139Z,1010.30
2018-02-25T05:43:50.096Z,1010.34
2018-02-25T05:45:42.906Z,1010.33
2018-02-25T05:46:42.875Z,1010.38
2018-02-25T05:48:36.213Z,1010.45
2018-02-25T05:49:36.166Z,1010.42
2018-02-25T05:51:28.977Z,1010.42
2018-02-25T05:52:28.945Z,1010.44
2018-02-25T05:54:22.265Z,1010.48
2018-02-25T05:55:22.234Z,1010.50
2018-02-25T05:57:15.532Z,1010.50
2018-02-25T05:58:15.503Z,1010.52
2018-02-25T06:00:08.335Z,1010.52
2018-02-25T06:01:08.284Z,1010.53
2018-02-25T06:03:01.099Z,1010.57
2018-02-25T06:04:01.067Z,1010.53
2018-02-25T06:05:53.894Z,1010.61
2018-02-25T06:06:53.847Z,1010.61
2018-02-25T06:08:46.666Z,1010.65
2018-02-25T06:09:46.636Z,1010.64
2018-02-25T06:11:39.473Z,1010.68
2018-02-25T06:12:39.424Z,1010.70
2018-02-25T06:14:32.237Z,1010.74
2018-02-25T06:15:32.206Z,1010.72
2018-02-25T06:17:25.037Z,1010.66
2018-02-25T06:18:24.996Z,1010.73
2018-02-25T06:20:17.807Z,1010.82
2018-02-25T06:21:17.779Z,1010.81
2018-02-25T06:23:11.102Z,1010.79
2018-02-25T06:24:11.054Z,1010.83
2018-02-25T06:26:03.866Z,1010.83
2018-02-25T06:27:03.836Z,1010.83
2018-02-25T06:28:56.732Z,1010.91
2018-02-25T06:29:56.620Z,1010.90
2018-02-25T06:31:49.932Z,1010.85
2018-02-25T06:32:49.896Z,1010.88
2018-02-25T06:34:43.229Z,1010.96
2018-02-25T06:35:43.188Z,1010.95
2018-02-25T06:37:36.492Z,1010.98
2018-02-25T06:38:36.462Z,1011.00
2018-02-25T06:40:29.782Z,1011.01
2018-02-25T06:41:29.737Z,1011.01
2018-02-25T06:43:22.554Z,1011.08
2018-02-25T06:44:22.522Z,1011.02
2018-02-25T06:46:15.355Z,1011.11
2018-02-25T06:47:15.302Z,1011.12
2018-02-25T06:49:08.607Z,1011.13
2018-02-25T06:50:08.579Z,1011.13
2018-02-25T06:52:01.412Z,1011.14
2018-02-25T06:53:01.367Z,1011.16
2018-02-25T06:54:54.203Z,1011.23
2018-02-25T06:55:54.169Z,1011.23
2018-02-25T06:57:47.508Z,1011.27
2018-02-25T06:58:47.459Z,1011.31
2018-02-25T07:00:40.274Z,1011.30
2018-02-25T07:01:40.242Z,1011.30
2018-02-25T07:03:33.564Z,1011.30
2018-02-25T07:04:33.524Z,1011.34
2018-02-25T07:06:26.333Z,1011.37
2018-02-25T07:07:26.303Z,1011.32
2018-02-25T07:09:19.129Z,1011.27
2018-02-25T07:10:19.084Z,1011.43
2018-02-25T07:12:11.898Z,1011.36
2018-02-25T07:13:11.869Z,1011.41
2018-02-25T07:15:04.750Z,1011.42
2018-02-25T07:16:04.650Z,1011.41
2018-02-25T07:17:57.956Z,1011.41
2018-02-25T07:18:57.927Z,1011.46
2018-02-25T07:20:50.760Z,1011.44
2018-02-25T07:21:50.714Z,1011.41
2018-02-25T07:23:44.023Z,1011.45
2018-02-25T07:24:43.992Z,1011.51
2018-02-25T07:26:36.822Z,1011.48
2018-02-25T07:27:36.771Z,1011.43
2018-02-25T07:29:29.590Z,1011.48
2018-02-25T07:30:29.561Z,1011.47
2018-02-25T07:32:22.383Z,1011.49
2018-02-25T07:33:22.361Z,1011.47
2018-02-25T07:35:15.154Z,1011.54
2018-02-25T07:36:15.121Z,1011.48
2018-02-25T07:38:08.450Z,1011.40
2018-02-25T07:39:08.401Z,1011.48
2018-02-25T07:41:01.719Z,1011.50
2018-02-25T07:42:01.690Z,1011.45
2018-02-25T07:43:55.010Z,1011.40
2018-02-25T07:44:54.966Z,1011.44
2018-02-25T07:46:48.279Z,1011.43
2018-02-25T07:47:48.242Z,1011.41
2018-02-25T07:49:41.082Z,1011.37
2018-02-25T07:50:41.027Z,1011.35
2018-02-25T07:52:34.341Z,1011.34
2018-02-25T07:53:34.311Z,1011.36
2018-02-25T07:55:27.641Z,1011.34
2018-02-25T07:56:27.597Z,1011.35
2018-02-25T07:58:20.406Z,1011.31
2018-02-25T07:59:20.377Z,1011.38
2018-02-25T08:01:13.710Z,1011.25
2018-02-25T08:02:13.678Z,1011.30
2018-02-25T08:04:06.480Z,1011.38
2018-02-25T08:05:06.449Z,1011.36
2018-02-25T08:06:59.276Z,1011.32
2018-02-25T08:07:59.232Z,1011.29
2018-02-25T08:09:52.044Z,1011.34
2018-02-25T08:10:52.013Z,1011.40
2018-02-25T08:12:45.332Z,1011.42
2018-02-25T08:13:45.288Z,1011.42
2018-02-25T08:15:38.607Z,1011.38
2018-02-25T08:16:38.576Z,1011.44
2018-02-25T08:18:31.897Z,1011.28
2018-02-25T08:19:31.852Z,1011.36
2018-02-25T08:21:24.667Z,1011.39
2018-02-25T08:22:24.635Z,1011.33
2018-02-25T08:24:17.464Z,1011.32
2018-02-25T08:25:17.417Z,1011.37
2018-02-25T08:27:10.231Z,1011.38
2018-02-25T08:28:10.202Z,1011.41
2018-02-25T08:30:03.523Z,1011.50
2018-02-25T08:31:03.480Z,1011.37
2018-02-25T08:32:56.290Z,1011.39
2018-02-25T08:33:56.265Z,1011.37
2018-02-25T08:35:49.100Z,1011.26
2018-02-25T08:36:49.055Z,1011.39
2018-02-25T08:38:42.375Z,1011.42
2018-02-25T08:39:42.342Z,1011.45
2018-02-25T08:41:35.658Z,1011.43
2018-02-25T08:42:35.617Z,1011.40
2018-02-25T08:44:28.428Z,1011.42
2018-02-25T08:45:28.399Z,1011.49
2018-02-25T08:47:21.235Z,1011.44
2018-02-25T08:48:21.183Z,1011.37
2018-02-25T08:50:14.026Z,1011.45
2018-02-25T08:51:13.965Z,1011.36
2018-02-25T08:53:06.794Z,1011.31
2018-02-25T08:54:06.751Z,1011.38
2018-02-25T08:56:00.062Z,1011.31
2018-02-25T08:57:00.030Z,1011.35
2018-02-25T08:58:53.363Z,1011.41
2018-02-25T08:59:53.328Z,1011.34
2018-02-25T09:01:46.627Z,1011.29
2018-02-25T09:02:46.601Z,1011.33
2018-02-25T09:04:39.432Z,1011.30
2018-02-25T09:05:39.381Z,1011.30
2018-02-25T09:07:32.697Z,1011.29
2018-02-25T09:08:32.669Z,1011.25
2018-02-25T09:10:26.002Z,1011.27
2018-02-25T09:11:25.956Z,1011.25
2018-02-25T09:13:18.770Z,1011.28
2018-02-25T09:14:18.744Z,1011.27
2018-02-25T09:16:11.567Z,1011.24
2018-02-25T09:17:11.524Z,1011.28
2018-02-25T09:19:04.831Z,1011.24
2018-02-25T09:20:04.801Z,1011.26
2018-02-25T09:21:57.628Z,1011.22
2018-02-25T09:22:57.584Z,1011.20
2018-02-25T09:24:50.901Z,1011.21
2018-02-25T09:25:50.874Z,1011.14
2018-02-25T09:27:44.193Z,1011.14
2018-02-25T09:28:44.156Z,1011.20
2018-02-25T09:30:37.460Z,1011.22
2018-02-25T09:31:37.429Z,1011.22
2018-02-25T09:33:30.763Z,1011.26
2018-02-25T09:34:30.712Z,1011.27
2018-02-25T09:36:24.033Z,1011.25
2018-02-25T09:37:24.003Z,1011.29
2018-02-25T09:39:16.837Z,1011.28
2018-02-25T09:40:16.790Z,1011.30
2018-02-25T09:42:09.611Z,1011.22
2018-02-25T09:43:09.579Z,1011.28
2018-02-25T09:45:02.403Z,1011.10
2018-02-25T09:46:02.361Z,1011.33
2018-02-25T09:47:55.664Z,1011.26
2018-02-25T09:48:55.635Z,1011.29
2018-02-25T09:50:48.475Z,1011.18
2018-02-25T09:51:48.432Z,1011.19
2018-02-25T09:53:41.736Z,1011.20
2018-02-25T09:54:41.705Z,1011.12
2018-02-25T09:56:34.539Z,1011.09
2018-02-25T09:57:34.497Z,1011.10
2018-02-25T09:59:27.814Z,1011.09
2018-02-25T10:00:27.786Z,1011.14
2018-02-25T10:02:21.117Z,1011.10
2018-02-25T10:03:21.075Z,1011.00
2018-02-25T10:05:14.380Z,1010.95
2018-02-25T10:06:14.352Z,1011.02
2018-02-25T10:08:07.680Z,1011.00
2018-02-25T10:09:07.634Z,1011.03
2018-02-25T10:11:00.945Z,1011.07
2018-02-25T10:12:00.916Z,1011.12
2018-02-25T10:13:53.741Z,1011.04
2018-02-25T10:14:53.705Z,1011.06
2018-02-25T10:16:47.016Z,1011.04
2018-02-25T10:17:47.009Z,1011.12
2018-02-25T10:19:40.316Z,1011.10
2018-02-25T10:20:40.268Z,1011.06
2018-02-25T10:22:33.078Z,1011.17
2018-02-25T10:23:33.052Z,1011.04
2018-02-25T10:25:26.374Z,1011.21
2018-02-25T10:26:26.330Z,1011.19
2018-02-25T10:28:19.148Z,1011.15
2018-02-25T10:29:19.116Z,1011.03
2018-02-25T10:31:11.948Z,1011.06
2018-02-25T10:32:11.905Z,1011.04
2018-02-25T10:34:04.720Z,1011.02
2018-02-25T10:35:04.691Z,1011.04
2018-02-25T10:36:57.519Z,1011.05
2018-02-25T10:37:57.475Z,1010.93
2018-02-25T10:39:50.290Z,1010.91
2018-02-25T10:40:50.264Z,1010.83
2018-02-25T10:42:43.589Z,1010.97
2018-02-25T10:43:43.543Z,1010.98
2018-02-25T10:45:36.357Z,1010.95
2018-02-25T10:46:36.330Z,1010.91
2018-02-25T10:48:29.664Z,1010.89
2018-02-25T10:49:29.624Z,1010.88
2018-02-25T10:51:22.454Z,1010.85
2018-02-25T10:52:22.426Z,1010.92
2018-02-25T10:54:15.258Z,1010.92
2018-02-25T10:55:15.214Z,1010.81
2018-02-25T10:57:08.032Z,1010.94
2018-02-25T10:58:08.000Z,1010.92
2018-02-25T11:00:00.840Z,1010.98
2018-02-25T11:01:00.798Z,1010.91
2018-02-25T11:02:53.612Z,1010.90
2018-02-25T11:03:53.586Z,1010.92
2018-02-25T11:05:46.424Z,1010.79
2018-02-25T11:06:46.375Z,1010.75
2018-02-25T11:08:39.686Z,1010.93
2018-02-25T11:09:39.661Z,1010.89
2018-02-25T11:11:32.490Z,1010.89
2018-02-25T11:12:32.447Z,1010.84
2018-02-25T11:14:25.267Z,1010.85
2018-02-25T11:15:25.284Z,1010.84
2018-02-25T11:17:18.064Z,1010.75
2018-02-25T11:18:18.019Z,1010.75
2018-02-25T11:20:11.340Z,1010.79
2018-02-25T11:21:11.310Z,1010.68
2018-02-25T11:23:04.144Z,1010.80
2018-02-25T11:24:04.099Z,1010.78
2018-02-25T11:25:56.934Z,1010.75
2018-02-25T11:26:56.896Z,1010.76
2018-02-25T11:28:49.728Z,1010.74
2018-02-25T11:29:49.686Z,1010.72
2018-02-25T11:31:43.035Z,1010.65
2018-02-25T11:32:42.968Z,1010.72
2018-02-25T11:34:36.295Z,1010.64
2018-02-25T11:35:36.253Z,1010.58
2018-02-25T11:37:29.071Z,1010.60
2018-02-25T11:38:29.054Z,1010.61
2018-02-25T11:40:21.897Z,1010.51
2018-02-25T11:41:21.830Z,1010.53
2018-02-25T11:43:15.183Z,1010.49
2018-02-25T11:44:15.127Z,1010.43
2018-02-25T11:46:07.968Z,1010.51
2018-02-25T11:47:07.919Z,1010.45
2018-02-25T11:49:01.243Z,1010.42
2018-02-25T11:50:01.212Z,1010.41
2018-02-25T11:51:54.047Z,1010.35
2018-02-25T11:52:54.006Z,1010.38
2018-02-25T11:54:47.324Z,1010.42
2018-02-25T11:55:47.294Z,1010.41
2018-02-25T11:57:40.617Z,1010.40
2018-02-25T11:58:40.576Z,1010.43
2018-02-25T12:00:33.397Z,1010.38
2018-02-25T12:01:33.368Z,1010.40
2018-02-25T12:03:26.696Z,1010.34
2018-02-25T12:04:26.659Z,1010.35
2018-02-25T12:06:19.470Z,1010.29
2018-02-25T12:07:19.491Z,1010.31
2018-02-25T12:09:12.768Z,1010.34
2018-02-25T12:10:12.726Z,1010.34
2018-02-25T12:12:06.067Z,1010.31
2018-02-25T12:13:06.039Z,1010.37
2018-02-25T12:14:59.684Z,1010.38
2018-02-25T12:15:59.333Z,1010.37
2018-02-25T12:17:52.206Z,1010.36
2018-02-25T12:18:52.142Z,1010.26
2018-02-25T12:20:45.481Z,1010.36
2018-02-25T12:21:45.427Z,1010.38
2018-02-25T12:23:38.259Z,1010.26
2018-02-25T12:24:38.218Z,1010.27
2018-02-25T12:26:31.057Z,1010.31
2018-02-25T12:27:31.008Z,1010.29
2018-02-25T12:29:23.823Z,1010.28
2018-02-25T12:30:23.799Z,1010.32
2018-02-25T12:32:16.633Z,1010.20
2018-02-25T12:33:16.600Z,1010.26
2018-02-25T12:35:09.411Z,1010.25
2018-02-25T12:36:09.386Z,1010.29
2018-02-25T12:38:02.715Z,1010.24
2018-02-25T12:39:02.673Z,1010.22
2018-02-25T12:40:55.494Z,1010.16
2018-02-25T12:41:55.466Z,1010.14
2018-02-25T12:43:48.303Z,1010.19
2018-02-25T12:44:48.255Z,1010.17
2018-02-25T12:46:41.079Z,1010.14
2018-02-25T12:47:41.081Z,1010.12
2018-02-25T12:49:33.883Z,1010.10
2018-02-25T12:50:33.839Z,1010.16
2018-02-25T12:52:26.710Z,1009.99
2018-02-25T12:53:26.634Z,1010.09
2018-02-25T12:55:19.469Z,1010.11
2018-02-25T12:56:19.426Z,1010.08
2018-02-25T12:58:12.277Z,1010.09
2018-02-25T12:59:12.231Z,1010.07
2018-02-25T13:01:05.068Z,1010.06
2018-02-25T13:02:05.027Z,1009.95
2018-02-25T13:03:57.844Z,1010.03
2018-02-25T13:04:57.819Z,1010.00
2018-02-25T13:06:50.660Z,1010.02
2018-02-25T13:07:50.614Z,1010.00
2018-02-25T13:09:43.436Z,1009.99
2018-02-25T13:10:43.412Z,1010.00
2018-02-25T13:12:36.248Z,1009.87
2018-02-25T13:13:36.207Z,1009.91
2018-02-25T13:15:29.521Z,1009.86
2018-02-25T13:16:29.509Z,1009.88
2018-02-25T13:18:22.336Z,1009.86
2018-02-25T13:19:22.298Z,1009.84
2018-02-25T13:21:15.610Z,1009.74
2018-02-25T13:22:15.585Z,1009.71
2018-02-25T13:24:09.416Z,1009.79
2018-02-25T13:25:09.376Z,1009.72
2018-02-25T13:27:02.196Z,1009.70
2018-02-25T13:28:02.174Z,1009.72
2018-02-25T13:29:55.010Z,1009.73
2018-02-25T13:30:54.970Z,1009.74
2018-02-25T13:32:48.293Z,1009.65
2018-02-25T13:33:48.270Z,1009.68
2018-02-25T13:35:41.598Z,1009.65
2018-02-25T13:36:41.559Z,1009.65
2018-02-25T13:38:34.383Z,1009.67
2018-02-25T13:39:34.359Z,1009.64
2018-02-25T13:41:27.699Z,1009.61
2018-02-25T13:42:27.662Z,1009.63
2018-02-25T13:44:20.975Z,1009.65
2018-02-25T13:45:20.951Z,1009.50
2018-02-25T13:47:14.799Z,1009.63
2018-02-25T13:48:14.748Z,1009.56
2018-02-25T13:50:08.076Z,1009.55
2018-02-25T13:51:08.051Z,1009.54
2018-02-25T13:53:00.889Z,1009.51
2018-02-25T13:54:00.849Z,1009.56
2018-02-25T13:55:54.180Z,1009.49
2018-02-25T13:56:54.151Z,1009.48
2018-02-25T13:58:47.003Z,1009.40
2018-02-25T13:59:46.949Z,1009.48
2018-02-25T14:01:39.780Z,1009.44
2018-02-25T14:02:39.751Z,1009.53
2018-02-25T14:04:32.690Z,1009.30
2018-02-25T14:05:32.550Z,1009.40
2018-02-25T14:07:25.870Z,1009.46
2018-02-25T14:08:25.845Z,1009.42
2018-02-25T14:10:18.689Z,1009.43
2018-02-25T14:11:18.652Z,1009.43
2018-02-25T14:13:11.470Z,1009.37
2018-02-25T14:14:11.446Z,1009.35
2018-02-25T14:16:04.287Z,1009.42
2018-02-25T14:17:04.245Z,1009.40
2018-02-25T14:18:57.114Z,1009.41
2018-02-25T14:19:57.045Z,1009.37
2018-02-25T14:21:49.890Z,1009.30
2018-02-25T14:22:49.846Z,1009.29
2018-02-25T14:24:42.674Z,1009.40
2018-02-25T14:25:42.645Z,1009.40
2018-02-25T14:27:35.978Z,1009.49
2018-02-25T14:28:35.940Z,1009.46
2018-02-25T14:30:28.763Z,1009.44
2018-02-25T14:31:28.735Z,1009.42
2018-02-25T14:33:22.076Z,1009.40
2018-02-25T14:34:22.036Z,1009.38
2018-02-25T14:36:14.860Z,1009.35
2018-02-25T14:37:14.841Z,1009.42
2018-02-25T14:39:08.178Z,1009.45
2018-02-25T14:40:08.139Z,1009.48
2018-02-25T14:42:00.960Z,1009.43
2018-02-25T14:43:00.937Z,1009.41
2018-02-25T14:44:53.776Z,1009.48
2018-02-25T14:45:53.738Z,1009.37
2018-02-25T14:47:46.564Z,1009.52
2018-02-25T14:48:46.540Z,1009.40
2018-02-25T14:50:39.378Z,1009.43
2018-02-25T14:51:39.341Z,1009.42
2018-02-25T14:53:32.205Z,1009.36
2018-02-25T14:54:32.138Z,1009.38
2018-02-25T14:56:25.476Z,1009.33
2018-02-25T14:57:25.434Z,1009.33
2018-02-25T14:59:18.265Z,1009.41
2018-02-25T15:00:18.287Z,1009.31
2018-02-25T15:02:11.081Z,1009.38
2018-02-25T15:03:11.043Z,1009.43
2018-02-25T15:05:04.361Z,1009.36
2018-02-25T15:06:04.336Z,1009.41
2018-02-25T15:07:57.676Z,1009.34
2018-02-25T15:08:57.631Z,1009.33
2018-02-25T15:10:50.454Z,1009.33
2018-02-25T15:11:50.434Z,1009.37
2018-02-25T15:13:43.276Z,1009.34
2018-02-25T15:14:43.231Z,1009.30
2018-02-25T15:16:36.058Z,1009.26
2018-02-25T15:17:36.037Z,1009.29
2018-02-25T15:19:29.380Z,1009.23
2018-02-25T15:20:29.340Z,1009.23
2018-02-25T15:22:22.167Z,1009.20
2018-02-25T15:23:22.143Z,1009.19
2018-02-25T15:25:15.485Z,1009.17
2018-02-25T15:26:15.444Z,1009.18
2018-02-25T15:28:08.264Z,1009.20
2018-02-25T15:29:08.240Z,1009.14
2018-02-25T15:31:01.085Z,1009.20
2018-02-25T15:32:01.078Z,1009.20
2018-02-25T15:33:53.869Z,1009.24
2018-02-25T15:34:53.843Z,1009.25
2018-02-25T15:36:46.685Z,1009.29
2018-02-25T15:37:46.646Z,1009.15
2018-02-25T15:39:39.483Z,1009.19
2018-02-25T15:40:39.453Z,1009.19
2018-02-25T15:42:32.787Z,1009.23
2018-02-25T15:43:32.749Z,1009.16
2018-02-25T15:45:25.574Z,1009.22
2018-02-25T15:46:25.549Z,1009.25
2018-02-25T15:48:18.488Z,1009.21
2018-02-25T15:49:18.359Z,1009.16
2018-02-25T15:51:11.675Z,1009.26
2018-02-25T15:52:11.709Z,1009.20
2018-02-25T15:54:04.492Z,1009.23
2018-02-25T15:55:04.452Z,1009.23
2018-02-25T15:56:57.277Z,1009.22
2018-02-25T15:57:57.252Z,1009.24
2018-02-25T15:59:50.092Z,1009.29
2018-02-25T16:00:50.052Z,1009.28
2018-02-25T16:02:42.884Z,1009.28
2018-02-25T16:03:42.853Z,1009.32
2018-02-25T16:05:35.693Z,1009.26
2018-02-25T16:06:35.652Z,1009.23
2018-02-25T16:08:28.970Z,1009.30
2018-02-25T16:09:28.950Z,1009.26
2018-02-25T16:11:21.786Z,1009.29
2018-02-25T16:12:21.746Z,1009.31
2018-02-25T16:14:14.570Z,1009.29
2018-02-25T16:15:14.546Z,1009.28
2018-02-25T16:17:07.389Z,1009.33
2018-02-25T16:18:07.346Z,1009.34
2018-02-25T16:20:00.175Z,1009.33
2018-02-25T16:21:00.147Z,1009.34
2018-02-25T16:22:52.980Z,1009.20
2018-02-25T16:23:52.945Z,1009.32
2018-02-25T16:25:45.865Z,1009.36
2018-02-25T16:26:45.746Z,1009.38
2018-02-25T16:28:39.095Z,1009.34
2018-02-25T16:29:39.046Z,1009.39
2018-02-25T16:31:31.874Z,1009.37
2018-02-25T16:32:31.845Z,1009.39
2018-02-25T16:34:24.687Z,1009.35
2018-02-25T16:35:24.641Z,1009.41
2018-02-25T16:37:17.958Z,1009.45
2018-02-25T16:38:17.937Z,1009.43
2018-02-25T16:40:10.772Z,1009.44
2018-02-25T16:41:10.731Z,1009.41
2018-02-25T16:43:04.046Z,1009.46
2018-02-25T16:44:04.023Z,1009.47
2018-02-25T16:45:57.356Z,1009.44
2018-02-25T16:46:57.311Z,1009.47
2018-02-25T16:48:50.627Z,1009.46
2018-02-25T16:49:50.605Z,1009.46
2018-02-25T16:51:43.451Z,1009.52
2018-02-25T16:52:43.400Z,1009.50
2018-02-25T16:54:36.332Z,1009.50
2018-02-25T16:55:36.195Z,1009.53
2018-02-25T16:57:29.528Z,1009.51
2018-02-25T16:58:29.483Z,1009.56
2018-02-25T17:00:22.311Z,1009.50
2018-02-25T17:01:22.285Z,1009.55
2018-02-25T17:03:15.612Z,1009.58
2018-02-25T17:04:15.570Z,1009.61
2018-02-25T17:06:08.881Z,1009.60
2018-02-25T17:07:08.859Z,1009.66
2018-02-25T17:09:01.700Z,1009.74
2018-02-25T17:10:01.660Z,1009.74
2018-02-25T17:11:54.479Z,1009.74
2018-02-25T17:12:54.452Z,1009.74
2018-02-25T17:14:47.788Z,1009.81
2018-02-25T17:15:47.743Z,1009.80
2018-02-25T17:17:41.058Z,1009.85
2018-02-25T17:18:41.033Z,1009.81
2018-02-25T17:20:33.869Z,1009.88
2018-02-25T17:21:33.827Z,1009.94
2018-02-25T17:23:27.148Z,1009.93
2018-02-25T17:24:27.121Z,1009.96
2018-02-25T17:26:20.453Z,1009.99